Terminal Aerodrome Forecast
Issued by NWS

Home | Current Version | Previous Version | Text Only | Print | Product List | Glossary On
Versions: 1 2 3 4 5 6 7 8 9 10 11 12 13 14 15 16 17 18 19 20 21 22 23 24 25
000
FTUS44 KMOB 241203 AAA
TAFBFM
TAF AMD
KBFM 241203Z 2412/2512 10010KT 5SM BR SCT015 BKN040
      TEMPO 2414/2418 5SM TSRA BKN010CB OVC020
     FM241800 14015KT P6SM VCTS BKN020CB
     FM250100 15010KT P6SM BKN030=

USA.gov is the U.S. government's official web portal to all federal, state and local government web resources and services.